createdAt,value
2018-05-24T00:00:19.079Z,4.20
2018-05-24T00:02:47.925Z,3.53
2018-05-24T00:05:16.752Z,3.23
2018-05-24T00:07:45.665Z,3.33
2018-05-24T00:10:14.425Z,3.70
2018-05-24T00:12:43.269Z,3.83
2018-05-24T00:15:12.633Z,4.10
2018-05-24T00:17:41.478Z,4.80
2018-05-24T00:20:10.353Z,4.87
2018-05-24T00:22:39.200Z,4.40
2018-05-24T00:25:08.049Z,3.57
2018-05-24T00:27:37.680Z,4.30
2018-05-24T00:30:06.523Z,4.10
2018-05-24T00:32:35.352Z,4.90
2018-05-24T00:35:04.205Z,3.73
2018-05-24T00:37:33.556Z,3.70
2018-05-24T00:40:02.513Z,4.10
2018-05-24T00:42:32.118Z,4.07
2018-05-24T00:45:02.064Z,4.20
2018-05-24T00:47:31.795Z,3.80
2018-05-24T00:50:00.652Z,3.43
2018-05-24T00:52:30.494Z,4.20
2018-05-24T00:55:11.265Z,3.57
2018-05-24T00:57:40.112Z,4.10
2018-05-24T01:00:09.731Z,3.90
2018-05-24T01:02:39.323Z,4.30
2018-05-24T01:05:08.402Z,4.53
2018-05-24T01:07:37.224Z,4.57
2018-05-24T01:10:06.082Z,4.70
2018-05-24T01:12:36.038Z,4.30
2018-05-24T01:15:04.878Z,4.27
2018-05-24T01:17:33.735Z,4.80
2018-05-24T01:20:02.582Z,4.30
2018-05-24T01:22:32.197Z,4.47
2018-05-24T01:25:01.033Z,3.93
2018-05-24T01:27:31.401Z,3.80
2018-05-24T01:30:00.252Z,4.37
2018-05-24T01:32:29.110Z,3.57
2018-05-24T01:34:57.940Z,4.17
2018-05-24T01:37:38.705Z,4.37
2018-05-24T01:40:08.553Z,4.40
2018-05-24T01:42:37.393Z,4.07
2018-05-24T01:45:06.233Z,3.67
2018-05-24T01:47:35.849Z,4.23
2018-05-24T01:50:05.442Z,4.83
2018-05-24T01:52:34.305Z,5.47
2018-05-24T01:55:03.916Z,4.47
2018-05-24T01:57:32.739Z,5.77
2018-05-24T02:00:01.934Z,5.30
2018-05-24T02:02:30.788Z,5.40
2018-05-24T02:04:59.613Z,5.60
2018-05-24T02:07:28.465Z,5.20
2018-05-24T02:09:57.288Z,5.80
2018-05-24T02:12:26.128Z,5.60
2018-05-24T02:14:55.786Z,5.73
2018-05-24T02:17:24.637Z,6.30
2018-05-24T02:19:54.250Z,5.13
2018-05-24T02:22:23.101Z,6.03
2018-05-24T02:24:52.693Z,6.20
2018-05-24T02:27:21.524Z,7.07
2018-05-24T02:29:50.461Z,7.17
2018-05-24T02:32:19.342Z,5.93
2018-05-24T02:34:48.930Z,7.07
2018-05-24T02:37:17.747Z,7.10
2018-05-24T02:39:46.598Z,6.73
2018-05-24T02:42:15.425Z,6.67
2018-05-24T02:44:45.040Z,6.87
2018-05-24T02:47:14.497Z,5.73
2018-05-24T02:49:43.364Z,6.50
2018-05-24T02:52:12.190Z,5.23
2018-05-24T02:54:41.011Z,7.10
2018-05-24T02:57:09.866Z,7.07
2018-05-24T02:59:39.413Z,6.30
2018-05-24T03:02:08.265Z,5.90
2018-05-24T03:04:37.077Z,5.60
2018-05-24T03:07:06.690Z,4.43
2018-05-24T03:09:35.518Z,5.40
2018-05-24T03:12:04.348Z,5.67
2018-05-24T03:14:33.982Z,5.47
2018-05-24T03:17:02.833Z,5.80
2018-05-24T03:19:31.679Z,5.90
2018-05-24T03:22:00.521Z,6.67
2018-05-24T03:24:30.108Z,5.37
2018-05-24T03:26:58.957Z,6.30
2018-05-24T03:29:28.554Z,5.73
2018-05-24T03:31:58.159Z,7.23
2018-05-24T03:34:27.768Z,7.83
2018-05-24T03:36:57.372Z,6.47
2018-05-24T03:39:27.011Z,6.00
2018-05-24T03:41:55.844Z,7.50
2018-05-24T03:44:26.211Z,7.10
2018-05-24T03:46:55.056Z,6.70
2018-05-24T03:49:23.904Z,7.07
2018-05-24T03:51:52.882Z,7.00
2018-05-24T03:54:21.712Z,6.50
2018-05-24T03:56:50.570Z,6.80
2018-05-24T04:02:48.037Z,6.70
2018-05-24T04:05:16.858Z,6.63
2018-05-24T04:07:45.706Z,7.13
2018-05-24T04:10:15.296Z,6.80
2018-05-24T04:12:44.913Z,6.80
2018-05-24T04:15:15.354Z,6.00
2018-05-24T04:17:44.945Z,6.77
2018-05-24T04:20:14.561Z,7.40
2018-05-24T04:22:44.182Z,7.43
2018-05-24T04:25:13.782Z,6.70
2018-05-24T04:27:43.265Z,7.20
2018-05-24T04:30:12.107Z,7.67
2018-05-24T04:32:40.952Z,7.10
2018-05-24T04:35:09.765Z,6.60
2018-05-24T04:37:38.608Z,7.00
2018-05-24T04:40:07.476Z,7.37
2018-05-24T04:42:37.103Z,7.00
2018-05-24T04:45:06.724Z,6.17
2018-05-24T04:47:35.562Z,6.63
2018-05-24T04:50:04.408Z,6.20
2018-05-24T04:52:33.248Z,7.40
2018-05-24T04:55:02.082Z,6.83
2018-05-24T04:57:30.912Z,6.50
2018-05-24T04:59:59.749Z,8.00
2018-05-24T05:02:28.573Z,6.63
2018-05-24T05:04:57.408Z,6.27
2018-05-24T05:07:27.013Z,7.30
2018-05-24T05:09:56.640Z,5.80
2018-05-24T05:12:25.476Z,6.57
2018-05-24T05:14:54.322Z,6.57
2018-05-24T05:17:23.140Z,6.67
2018-05-24T05:19:51.974Z,7.23
2018-05-24T05:22:21.570Z,6.87
2018-05-24T05:24:50.419Z,7.30
2018-05-24T05:27:20.025Z,7.50
2018-05-24T05:29:49.641Z,7.60
2018-05-24T05:32:18.604Z,7.53
2018-05-24T05:34:47.433Z,6.60
2018-05-24T05:37:16.252Z,6.20
2018-05-24T05:39:45.102Z,6.20
2018-05-24T05:42:14.707Z,6.43
2018-05-24T05:44:45.280Z,7.47
2018-05-24T05:47:14.051Z,6.57
2018-05-24T05:49:42.905Z,7.50
2018-05-24T05:52:11.796Z,6.60
2018-05-24T05:54:41.096Z,8.23
2018-05-24T05:57:10.530Z,7.13
2018-05-24T05:59:39.373Z,7.20
2018-05-24T06:02:08.205Z,7.37
2018-05-24T06:04:37.064Z,7.93
2018-05-24T06:07:05.900Z,7.17
2018-05-24T06:09:34.736Z,7.27
2018-05-24T06:12:03.570Z,5.83
2018-05-24T06:14:32.429Z,7.10
2018-05-24T06:17:02.055Z,7.60
2018-05-24T06:19:31.081Z,8.27
2018-05-24T06:21:59.938Z,7.27
2018-05-24T06:24:28.749Z,7.47
2018-05-24T06:26:57.578Z,6.77
2018-05-24T06:29:26.429Z,7.90
2018-05-24T06:31:55.240Z,7.57
2018-05-24T06:34:24.105Z,7.50
2018-05-24T06:36:53.710Z,7.83
2018-05-24T06:39:22.548Z,7.50
2018-05-24T06:41:51.372Z,8.57
2018-05-24T06:44:20.208Z,7.40
2018-05-24T06:46:49.062Z,7.47
2018-05-24T06:49:18.652Z,7.33
2018-05-24T06:51:48.256Z,7.20
2018-05-24T06:54:17.890Z,8.17
2018-05-24T06:56:46.725Z,6.80
2018-05-24T06:59:15.581Z,7.97
2018-05-24T07:01:44.420Z,6.87
2018-05-24T07:04:14.082Z,6.97
2018-05-24T07:06:42.908Z,7.00
2018-05-24T07:09:11.738Z,6.87
2018-05-24T07:11:40.560Z,7.30
2018-05-24T07:14:09.386Z,6.73
2018-05-24T07:16:39.522Z,7.73
2018-05-24T07:19:08.779Z,6.93
2018-05-24T07:21:37.626Z,6.80
2018-05-24T07:24:06.476Z,7.30
2018-05-24T07:26:35.301Z,7.40
2018-05-24T07:29:04.931Z,6.00
2018-05-24T07:31:33.782Z,6.23
2018-05-24T07:34:02.606Z,6.23
2018-05-24T07:36:31.456Z,6.53
2018-05-24T07:39:00.289Z,6.60
2018-05-24T07:41:29.179Z,6.03
2018-05-24T07:43:58.012Z,6.47
2018-05-24T07:46:26.872Z,6.30
2018-05-24T07:48:55.702Z,6.30
2018-05-24T07:51:24.549Z,6.77
2018-05-24T07:53:53.380Z,6.40
2018-05-24T07:56:22.271Z,6.40
2018-05-24T07:58:51.889Z,6.07
2018-05-24T08:01:21.498Z,6.97
2018-05-24T08:03:50.345Z,6.33
2018-05-24T08:06:19.234Z,6.27
2018-05-24T08:08:48.039Z,6.30
2018-05-24T08:11:16.858Z,7.10
2018-05-24T08:13:46.477Z,6.00
2018-05-24T08:16:15.328Z,6.83
2018-05-24T08:18:44.165Z,7.37
2018-05-24T08:21:13.013Z,7.33
2018-05-24T08:23:43.376Z,6.53
2018-05-24T08:26:12.961Z,6.63
2018-05-24T08:28:42.626Z,7.37
2018-05-24T08:31:12.225Z,7.30
2018-05-24T08:33:41.066Z,8.00
2018-05-24T08:36:09.910Z,9.10
2018-05-24T08:38:38.753Z,8.40
2018-05-24T08:41:07.594Z,8.47
2018-05-24T08:43:37.192Z,8.67
2018-05-24T08:46:06.271Z,8.60
2018-05-24T08:48:35.119Z,8.77
2018-05-24T08:51:03.975Z,8.20
2018-05-24T08:53:33.604Z,9.33
2018-05-24T08:56:02.459Z,9.63
2018-05-24T08:58:32.063Z,8.50
2018-05-24T09:01:00.941Z,9.27
2018-05-24T09:03:29.800Z,9.83
2018-05-24T09:05:58.666Z,10.73
2018-05-24T09:08:27.521Z,9.80
2018-05-24T09:10:57.166Z,10.40
2018-05-24T09:13:26.041Z,11.37
2018-05-24T09:15:54.905Z,10.77
2018-05-24T09:18:24.512Z,9.60
2018-05-24T09:20:54.179Z,10.80
2018-05-24T09:23:23.024Z,9.50
2018-05-24T09:25:52.653Z,10.50
2018-05-24T09:28:21.498Z,9.80
2018-05-24T09:30:50.620Z,9.70
2018-05-24T09:33:19.481Z,10.00
2018-05-24T09:35:49.097Z,10.07
2018-05-24T09:38:17.932Z,9.97
2018-05-24T09:40:46.792Z,9.17
2018-05-24T09:43:15.615Z,8.17
2018-05-24T09:45:44.456Z,9.00
2018-05-24T09:48:14.059Z,9.20
2018-05-24T09:50:43.689Z,9.07
2018-05-24T09:53:12.580Z,9.90
2018-05-24T09:55:41.418Z,9.23
2018-05-24T09:58:11.792Z,9.33
2018-05-24T10:00:40.629Z,9.43
2018-05-24T10:03:09.476Z,8.83
2018-05-24T10:05:38.312Z,8.40
2018-05-24T10:08:07.166Z,7.93
2018-05-24T10:10:36.064Z,8.90
2018-05-24T10:13:04.866Z,9.23
2018-05-24T10:15:33.697Z,9.27
2018-05-24T10:18:03.366Z,8.93
2018-05-24T10:20:32.166Z,9.00
2018-05-24T10:23:01.032Z,8.77
2018-05-24T10:25:29.909Z,8.63
2018-05-24T10:27:58.758Z,9.00
2018-05-24T10:30:27.590Z,8.27
2018-05-24T10:32:56.886Z,9.37
2018-05-24T10:35:26.515Z,9.20
2018-05-24T10:37:55.504Z,8.30
2018-05-24T10:40:24.336Z,8.33
2018-05-24T10:42:53.166Z,8.97
2018-05-24T10:45:22.023Z,8.63
2018-05-24T10:47:50.820Z,8.20
2018-05-24T10:50:20.025Z,8.30
2018-05-24T10:52:49.000Z,8.97
2018-05-24T10:55:18.627Z,7.83
2018-05-24T10:57:48.221Z,9.10
2018-05-24T11:00:17.832Z,8.30
2018-05-24T11:02:47.450Z,8.47
2018-05-24T11:05:16.551Z,8.50
2018-05-24T11:07:46.146Z,9.03
2018-05-24T11:10:15.743Z,8.10
2018-05-24T11:12:45.332Z,8.77
2018-05-24T11:15:14.196Z,8.67
2018-05-24T11:17:43.053Z,5.70
2018-05-24T11:20:12.665Z,7.10
2018-05-24T11:22:41.522Z,5.40
2018-05-24T11:25:11.198Z,4.70
2018-05-24T11:27:40.753Z,4.67
2018-05-24T11:30:10.349Z,3.83
2018-05-24T11:32:39.981Z,5.00
2018-05-24T11:35:08.849Z,5.20
2018-05-24T11:37:38.495Z,5.77
2018-05-24T11:40:07.367Z,5.13
2018-05-24T11:42:36.972Z,5.90
2018-05-24T11:45:05.793Z,6.20
2018-05-24T11:47:34.641Z,5.83
2018-05-24T11:50:03.472Z,7.10
2018-05-24T11:52:32.308Z,8.00
2018-05-24T11:55:01.914Z,6.87
2018-05-24T11:57:31.545Z,7.23
2018-05-24T12:00:00.641Z,6.90
2018-05-24T12:02:29.476Z,6.83
2018-05-24T12:04:58.331Z,6.60
2018-05-24T12:07:27.702Z,4.67
2018-05-24T12:09:56.826Z,4.60
2018-05-24T12:12:25.653Z,5.50
2018-05-24T12:14:54.501Z,5.50
2018-05-24T12:17:23.330Z,6.00
2018-05-24T12:19:52.193Z,6.23
2018-05-24T12:22:21.025Z,7.67
2018-05-24T12:24:49.861Z,8.30
2018-05-24T12:27:19.203Z,7.67
2018-05-24T12:29:48.053Z,9.20
2018-05-24T12:32:16.904Z,9.60
2018-05-24T12:34:45.756Z,10.17
2018-05-24T12:37:14.614Z,9.70
2018-05-24T12:39:44.229Z,9.53
2018-05-24T12:42:13.841Z,9.83
2018-05-24T12:44:42.697Z,11.73
2018-05-24T12:47:12.307Z,10.10
2018-05-24T12:49:41.933Z,11.97
2018-05-24T12:52:10.784Z,10.50
2018-05-24T12:54:40.411Z,10.53
2018-05-24T12:57:10.040Z,11.70
2018-05-24T12:59:39.689Z,12.23
2018-05-24T13:02:08.545Z,11.37
2018-05-24T13:04:37.407Z,11.23
2018-05-24T13:07:07.948Z,10.30
2018-05-24T13:09:37.580Z,11.40
2018-05-24T13:12:06.440Z,11.17
2018-05-24T13:14:35.288Z,10.10
2018-05-24T13:17:04.243Z,10.13
2018-05-24T13:19:33.000Z,10.20
2018-05-24T13:22:02.742Z,11.20
2018-05-24T13:24:31.672Z,11.07
2018-05-24T13:27:00.560Z,12.10
2018-05-24T13:29:29.444Z,11.13
2018-05-24T13:31:59.031Z,10.70
2018-05-24T13:34:28.635Z,11.00
2018-05-24T13:36:58.146Z,12.10
2018-05-24T13:39:27.021Z,14.37
2018-05-24T13:41:55.877Z,13.57
2018-05-24T13:44:24.744Z,12.73
2018-05-24T13:46:53.608Z,14.57
2018-05-24T13:49:22.481Z,13.07
2018-05-24T13:51:51.453Z,12.93
2018-05-24T13:54:20.542Z,12.93
2018-05-24T13:56:50.152Z,13.27
2018-05-24T13:59:19.781Z,13.50
2018-05-24T14:01:48.732Z,13.63
2018-05-24T14:04:17.504Z,14.70
2018-05-24T14:06:46.363Z,14.80
2018-05-24T14:09:15.217Z,13.77
2018-05-24T14:11:44.081Z,14.17
2018-05-24T14:14:13.009Z,13.13
2018-05-24T14:16:41.854Z,14.13
2018-05-24T14:19:10.718Z,14.60
2018-05-24T14:21:39.576Z,13.50
2018-05-24T14:24:08.448Z,14.47
2018-05-24T14:26:38.082Z,14.53
2018-05-24T14:29:06.934Z,14.27
2018-05-24T14:31:35.793Z,13.80
2018-05-24T14:34:04.643Z,14.27
2018-05-24T14:36:33.503Z,13.13
2018-05-24T14:39:02.517Z,15.33
2018-05-24T14:41:32.129Z,14.03
2018-05-24T14:44:00.967Z,15.90
2018-05-24T14:46:30.597Z,14.00
2018-05-24T14:49:00.269Z,16.10
2018-05-24T14:51:29.125Z,17.00
2018-05-24T14:53:58.176Z,17.93
2018-05-24T14:56:27.825Z,18.30
2018-05-24T14:58:56.674Z,19.17
2018-05-24T15:01:26.311Z,19.03
2018-05-24T15:03:55.945Z,19.03
2018-05-24T15:06:24.800Z,18.60
2018-05-24T15:08:53.650Z,20.00
2018-05-24T15:11:22.539Z,18.30
2018-05-24T15:13:52.942Z,16.83
2018-05-24T15:16:21.793Z,18.20
2018-05-24T15:18:51.330Z,18.10
2018-05-24T15:21:20.521Z,16.73
2018-05-24T15:23:49.375Z,18.40
2018-05-24T15:26:18.980Z,18.00
2018-05-24T15:28:48.601Z,17.77
2018-05-24T15:31:18.111Z,19.50
2018-05-24T15:33:47.032Z,19.43
2018-05-24T15:36:16.682Z,18.77
2018-05-24T15:38:46.314Z,18.93
2018-05-24T15:41:15.177Z,19.33
2018-05-24T15:43:44.861Z,19.60
2018-05-24T15:46:14.311Z,19.63
2018-05-24T15:48:43.188Z,19.10
2018-05-24T15:51:13.221Z,18.93
2018-05-24T15:53:42.706Z,20.20
2018-05-24T15:56:12.349Z,19.40
2018-05-24T15:58:41.176Z,20.10
2018-05-24T16:01:10.818Z,21.40
2018-05-24T16:03:40.429Z,20.60
2018-05-24T16:06:09.282Z,20.87
2018-05-24T16:08:39.012Z,23.17
2018-05-24T16:11:08.217Z,21.67
2018-05-24T16:13:37.826Z,19.77
2018-05-24T16:16:07.463Z,21.60
2018-05-24T16:18:36.278Z,21.23
2018-05-24T16:21:05.169Z,20.23
2018-05-24T16:23:34.097Z,22.80
2018-05-24T16:26:03.724Z,23.10
2018-05-24T16:28:32.557Z,22.27
2018-05-24T16:31:01.438Z,21.87
2018-05-24T16:33:30.298Z,22.07
2018-05-24T16:35:59.793Z,21.87
2018-05-24T16:38:29.429Z,22.53
2018-05-24T16:40:59.021Z,22.00
2018-05-24T16:43:29.304Z,23.47
2018-05-24T16:45:58.949Z,22.23
2018-05-24T16:48:27.802Z,21.03
2018-05-24T16:50:57.440Z,19.30
2018-05-24T16:53:26.322Z,18.70
2018-05-24T16:55:55.174Z,19.67
2018-05-24T16:58:24.845Z,21.40
2018-05-24T17:00:53.709Z,22.23
2018-05-24T17:03:22.605Z,20.90
2018-05-24T17:05:51.776Z,19.73
2018-05-24T17:08:21.272Z,18.90
2018-05-24T17:10:50.912Z,19.40
2018-05-24T17:13:19.806Z,20.50
2018-05-24T17:15:48.986Z,19.80
2018-05-24T17:18:17.841Z,19.40
2018-05-24T17:20:46.700Z,20.13
2018-05-24T17:23:15.570Z,21.00
2018-05-24T17:25:44.464Z,21.50
2018-05-24T17:28:13.430Z,19.70
2018-05-24T17:30:43.060Z,20.83
2018-05-24T17:33:11.917Z,19.47
2018-05-24T17:35:40.780Z,21.47
2018-05-24T17:38:09.622Z,20.23
2018-05-24T17:40:39.290Z,21.30
2018-05-24T17:43:08.772Z,20.97
2018-05-24T17:45:37.632Z,19.43
2018-05-24T17:48:07.250Z,19.83
2018-05-24T17:50:36.104Z,20.90
2018-05-24T17:53:06.246Z,21.07
2018-05-24T17:55:35.874Z,20.97
2018-05-24T17:58:05.374Z,22.10
2018-05-24T18:00:35.000Z,22.10
2018-05-24T18:03:04.561Z,21.33
2018-05-24T18:05:34.914Z,22.10
2018-05-24T18:08:03.766Z,22.83
2018-05-24T18:10:34.763Z,22.43
2018-05-24T18:13:03.608Z,24.07
2018-05-24T18:15:33.852Z,23.50
2018-05-24T18:18:02.713Z,24.70
2018-05-24T18:20:31.607Z,26.00
2018-05-24T18:23:00.461Z,25.93
2018-05-24T18:25:30.836Z,27.93
2018-05-24T18:28:00.475Z,25.83
2018-05-24T18:30:29.331Z,27.07
2018-05-24T18:32:58.956Z,27.40
2018-05-24T18:35:28.464Z,26.17
2018-05-24T18:37:57.309Z,27.20
2018-05-24T18:40:26.812Z,27.20
2018-05-24T18:42:55.719Z,26.87
2018-05-24T18:45:24.537Z,26.90
2018-05-24T18:47:53.406Z,27.37
2018-05-24T18:50:22.279Z,25.97
2018-05-24T18:52:51.935Z,26.07
2018-05-24T18:55:21.437Z,25.00
2018-05-24T18:57:50.317Z,25.30
2018-05-24T19:00:19.186Z,24.60
2018-05-24T19:02:48.041Z,24.13
2018-05-24T19:05:18.217Z,24.63
2018-05-24T19:07:47.089Z,25.40
2018-05-24T19:10:16.727Z,23.80
2018-05-24T19:12:46.217Z,25.07
2018-05-24T19:15:15.127Z,24.67
2018-05-24T19:17:43.958Z,23.70
2018-05-24T19:20:13.476Z,24.40
2018-05-24T19:22:43.144Z,24.70
2018-05-24T19:25:13.464Z,25.73
2018-05-24T19:27:42.333Z,26.57
2018-05-24T19:30:11.189Z,25.27
2018-05-24T19:32:40.388Z,24.97
2018-05-24T19:35:10.291Z,25.63
2018-05-24T19:37:39.149Z,25.53
2018-05-24T19:40:08.022Z,25.20
2018-05-24T19:42:37.503Z,25.27
2018-05-24T19:45:07.161Z,25.40
2018-05-24T19:47:36.009Z,25.77
2018-05-24T19:50:05.497Z,26.70
2018-05-24T19:52:34.364Z,28.10
2018-05-24T19:55:03.906Z,29.17
2018-05-24T19:57:33.528Z,28.13
2018-05-24T20:00:02.376Z,27.30
2018-05-24T20:02:31.238Z,31.40
2018-05-24T20:05:00.090Z,32.13
2018-05-24T20:07:29.723Z,32.23
2018-05-24T20:09:58.580Z,33.03
2018-05-24T20:12:28.216Z,31.33
2018-05-24T20:14:57.074Z,36.30
2018-05-24T20:17:26.708Z,37.30
2018-05-24T20:20:02.102Z,32.57
2018-05-24T20:22:30.977Z,35.00
2018-05-24T20:24:59.801Z,37.97
2018-05-24T20:27:28.894Z,35.23
2018-05-24T20:29:57.841Z,36.47
2018-05-24T20:32:28.529Z,37.87
2018-05-24T20:34:57.384Z,36.73
2018-05-24T20:37:28.717Z,36.90
2018-05-24T20:39:57.582Z,36.47
2018-05-24T20:42:26.455Z,35.00
2018-05-24T20:44:55.329Z,38.80
2018-05-24T20:47:24.972Z,40.33
2018-05-24T20:49:54.594Z,37.57
2018-05-24T20:52:23.490Z,36.60
2018-05-24T20:54:52.375Z,36.33
2018-05-24T20:57:22.776Z,38.40
2018-05-24T20:59:51.647Z,36.70
2018-05-24T21:02:21.281Z,36.97
2018-05-24T21:04:50.768Z,37.90
2018-05-24T21:07:19.638Z,35.20
2018-05-24T21:09:49.198Z,36.10
2018-05-24T21:12:18.772Z,37.70
2018-05-24T21:14:47.653Z,34.83
2018-05-24T21:17:17.289Z,38.23
2018-05-24T21:19:46.187Z,32.57
2018-05-24T21:22:15.845Z,37.10
2018-05-24T21:24:44.781Z,37.70
2018-05-24T21:27:13.604Z,36.60
2018-05-24T21:29:43.084Z,33.77
2018-05-24T21:32:11.945Z,37.53
2018-05-24T21:34:41.414Z,37.70
2018-05-24T21:37:11.292Z,35.73
2018-05-24T21:39:40.124Z,34.73
2018-05-24T21:42:08.995Z,36.53
2018-05-24T21:44:37.837Z,36.80
2018-05-24T21:47:08.076Z,37.10
2018-05-24T21:49:37.737Z,37.30
2018-05-24T21:52:07.341Z,38.50
2018-05-24T21:54:36.854Z,39.80
2018-05-24T21:57:05.737Z,37.23
2018-05-24T21:59:34.608Z,35.20
2018-05-24T22:02:03.462Z,38.10
2018-05-24T22:04:32.315Z,39.53
2018-05-24T22:07:01.164Z,37.97
2018-05-24T22:09:30.039Z,36.33
2018-05-24T22:11:59.645Z,36.60
2018-05-24T22:14:29.281Z,36.30
2018-05-24T22:16:58.130Z,37.77
2018-05-24T22:19:27.791Z,36.30
2018-05-24T22:21:57.052Z,36.03
2018-05-24T22:24:25.901Z,36.13
2018-05-24T22:26:54.765Z,33.97
2018-05-24T22:29:24.289Z,33.60
2018-05-24T22:31:53.116Z,36.27
2018-05-24T22:34:22.741Z,37.20
2018-05-24T22:36:51.576Z,36.63
2018-05-24T22:39:20.444Z,36.47
2018-05-24T22:41:50.539Z,36.60
2018-05-24T22:44:20.157Z,36.73
2018-05-24T22:46:49.010Z,35.90
2018-05-24T22:49:17.862Z,36.37
2018-05-24T22:51:46.713Z,33.50
2018-05-24T22:54:15.601Z,34.87
2018-05-24T22:56:45.241Z,34.80
2018-05-24T22:59:14.836Z,36.10
2018-05-24T23:01:43.684Z,37.37
2018-05-24T23:04:12.534Z,35.13
2018-05-24T23:06:41.392Z,37.63
2018-05-24T23:09:10.259Z,36.10
2018-05-24T23:11:39.974Z,33.80
2018-05-24T23:14:09.597Z,34.70
2018-05-24T23:16:38.456Z,36.40
2018-05-24T23:19:07.312Z,39.10
2018-05-24T23:21:36.168Z,35.47
2018-05-24T23:24:05.429Z,36.80
2018-05-24T23:26:35.274Z,37.43
2018-05-24T23:29:07.330Z,37.87
2018-05-24T23:31:36.945Z,38.70
2018-05-24T23:34:05.826Z,38.30
2018-05-24T23:36:34.673Z,39.97
2018-05-24T23:39:03.521Z,40.30
2018-05-24T23:41:32.449Z,39.27
2018-05-24T23:44:01.315Z,41.27
2018-05-24T23:46:31.041Z,41.67
2018-05-24T23:48:59.891Z,41.53
2018-05-24T23:51:28.765Z,40.50
2018-05-24T23:53:57.628Z,40.60
2018-05-24T23:56:26.469Z,38.87
2018-05-24T23:58:56.089Z,38.93
